createdAt,value
2022-12-27T00:02:12.345Z,95675.13
2022-12-27T00:04:55.706Z,95684.75
2022-12-27T00:07:38.837Z,95692.25
2022-12-27T00:10:22.098Z,95683.81
2022-12-27T00:13:06.603Z,95678.22
2022-12-27T00:15:49.576Z,95678.00
2022-12-27T00:18:32.729Z,95685.91
2022-12-27T00:21:16.937Z,95678.16
2022-12-27T00:24:02.034Z,95681.69
2022-12-27T00:26:45.090Z,95681.78
2022-12-27T00:29:29.747Z,95682.91
2022-12-27T00:32:12.820Z,95679.28
2022-12-27T00:34:55.941Z,95679.03
2022-12-27T00:37:38.953Z,95685.22
2022-12-27T00:40:22.027Z,95689.09
2022-12-27T00:43:05.069Z,95685.94
2022-12-27T00:45:49.609Z,95694.97
2022-12-27T00:48:32.829Z,95701.84
2022-12-27T00:51:18.844Z,95704.47
2022-12-27T00:54:01.912Z,95709.97
2022-12-27T00:56:44.961Z,95704.72
2022-12-27T00:59:27.978Z,95710.78
2022-12-27T01:02:12.445Z,95717.88
2022-12-27T01:04:57.417Z,95713.06
2022-12-27T01:07:40.659Z,95699.81
2022-12-27T01:10:23.764Z,95707.69
2022-12-27T01:13:06.758Z,95705.00
2022-12-27T01:15:49.902Z,95714.19
2022-12-27T01:18:34.967Z,95704.41
2022-12-27T01:21:20.796Z,95710.91
2022-12-27T01:24:03.826Z,95701.19
2022-12-27T01:26:46.953Z,95697.25
2022-12-27T01:29:30.008Z,95707.13
2022-12-27T01:32:13.039Z,95684.59
2022-12-27T01:34:57.443Z,95696.97
2022-12-27T01:37:40.531Z,95685.41
2022-12-27T01:40:23.531Z,95684.16
2022-12-27T01:43:05.827Z,95681.59
2022-12-27T01:45:49.622Z,95675.53
2022-12-27T01:48:32.796Z,95681.25
2022-12-27T01:51:18.024Z,95677.34
2022-12-27T01:54:01.129Z,95672.25
2022-12-27T01:56:44.513Z,95684.16
2022-12-27T01:59:27.646Z,95674.28
2022-12-27T02:02:10.970Z,95679.41
2022-12-27T02:04:55.950Z,95684.72
2022-12-27T02:07:50.338Z,95677.91
2022-12-27T02:10:34.031Z,95674.41
2022-12-27T02:13:17.953Z,95684.84
2022-12-27T02:16:00.963Z,95666.78
2022-12-27T02:18:44.773Z,95655.66
2022-12-27T02:22:00.272Z,95667.22
2022-12-27T02:25:05.148Z,95672.97
2022-12-27T02:28:03.990Z,95669.41
2022-12-27T02:30:53.072Z,95679.66
2022-12-27T02:33:44.706Z,95679.31
2022-12-27T02:36:31.541Z,95669.00
2022-12-27T02:39:17.647Z,95679.25
2022-12-27T02:42:19.712Z,95682.47
2022-12-27T02:45:21.098Z,95679.53
2022-12-27T02:48:29.509Z,95673.13
2022-12-27T02:51:43.839Z,95677.34
2022-12-27T02:54:47.480Z,95679.44
2022-12-27T02:57:40.484Z,95675.78
2022-12-27T03:00:52.293Z,95675.78
2022-12-27T03:03:50.604Z,95678.84
2022-12-27T03:06:53.938Z,95674.66
2022-12-27T03:10:04.178Z,95682.69
2022-12-27T03:13:11.079Z,95684.78
2022-12-27T03:16:09.721Z,95680.59
2022-12-27T03:19:11.626Z,95681.25
2022-12-27T03:22:26.838Z,95678.72
2022-12-27T03:25:36.724Z,95683.56
2022-12-27T03:28:41.247Z,95677.13
2022-12-27T03:31:46.143Z,95686.06
2022-12-27T03:34:36.091Z,95683.91
2022-12-27T03:37:39.826Z,95681.81
2022-12-27T03:40:33.809Z,95693.91
2022-12-27T03:43:16.730Z,95688.78
2022-12-27T03:46:29.024Z,95684.97
2022-12-27T03:49:21.308Z,95693.00
2022-12-27T03:52:11.551Z,95682.25
2022-12-27T03:54:55.228Z,95684.44
2022-12-27T03:57:38.996Z,95689.88
2022-12-27T04:00:22.222Z,95692.13
2022-12-27T04:03:05.759Z,95689.72
2022-12-27T04:05:48.933Z,95685.25
2022-12-27T04:08:51.026Z,95694.66
2022-12-27T04:11:52.256Z,95686.63
2022-12-27T04:14:52.907Z,95696.66
2022-12-27T04:17:53.764Z,95698.09
2022-12-27T04:20:54.186Z,95695.91
2022-12-27T04:23:56.254Z,95710.66
2022-12-27T04:26:56.740Z,95703.22
2022-12-27T04:29:57.250Z,95709.53
2022-12-27T04:32:57.563Z,95710.56
2022-12-27T04:35:40.626Z,95709.47
2022-12-27T04:38:23.650Z,95713.25
2022-12-27T04:41:25.712Z,95714.88
2022-12-27T04:44:25.807Z,95721.75
2022-12-27T04:47:31.072Z,95731.16
2022-12-27T04:50:43.852Z,95736.31
2022-12-27T04:53:44.439Z,95740.13
2022-12-27T04:56:28.809Z,95734.09
2022-12-27T04:59:29.067Z,95740.66
2022-12-27T05:02:12.244Z,95740.50
2022-12-27T05:04:55.614Z,95741.81
2022-12-27T05:07:56.576Z,95734.38
2022-12-27T05:10:56.929Z,95745.38
2022-12-27T05:13:58.999Z,95727.38
2022-12-27T05:16:44.172Z,95716.34
2022-12-27T05:19:27.265Z,95716.09
2022-12-27T05:22:27.427Z,95716.84
2022-12-27T05:25:29.398Z,95700.75
2022-12-27T05:28:14.056Z,95709.16
2022-12-27T05:31:02.735Z,95694.34
2022-12-27T05:33:45.829Z,95689.63
2022-12-27T05:36:29.072Z,95687.22
2022-12-27T05:39:12.214Z,95679.38
2022-12-27T05:41:55.279Z,95684.81
2022-12-27T05:44:38.318Z,95687.72
2022-12-27T05:47:22.830Z,95688.66
2022-12-27T05:50:06.698Z,95696.31
2022-12-27T05:52:49.792Z,95697.69
2022-12-27T05:55:32.922Z,95708.19
2022-12-27T05:58:15.957Z,95714.91
2022-12-27T06:00:59.147Z,95716.44
2022-12-27T06:03:43.762Z,95713.09
2022-12-27T06:06:26.897Z,95732.53
2022-12-27T06:09:10.435Z,95729.06
2022-12-27T06:11:53.495Z,95739.16
2022-12-27T06:14:36.877Z,95741.34
2022-12-27T06:17:19.982Z,95747.44
2022-12-27T06:20:04.621Z,95756.06
2022-12-27T06:22:47.731Z,95760.09
2022-12-27T06:25:30.856Z,95754.75
2022-12-27T06:28:13.938Z,95751.69
2022-12-27T06:30:59.090Z,95748.50
2022-12-27T06:33:42.389Z,95749.47
2022-12-27T06:36:27.791Z,95746.19
2022-12-27T06:39:11.011Z,95740.31
2022-12-27T06:41:55.390Z,95751.16
2022-12-27T06:44:38.573Z,95739.91
2022-12-27T06:47:21.627Z,95737.69
2022-12-27T06:50:05.461Z,95745.75
2022-12-27T06:52:49.936Z,95748.81
2022-12-27T06:55:33.041Z,95735.13
2022-12-27T06:58:16.253Z,95727.56
2022-12-27T07:00:59.517Z,95738.38
2022-12-27T07:03:43.087Z,95731.03
2022-12-27T07:06:27.939Z,95737.03
2022-12-27T07:09:12.862Z,95727.88
2022-12-27T07:11:55.901Z,95706.75
2022-12-27T07:14:40.552Z,95707.94
2022-12-27T07:17:23.598Z,95709.34
2022-12-27T07:20:09.407Z,95717.78
2022-12-27T07:22:52.817Z,95712.78
2022-12-27T07:25:37.442Z,95705.19
2022-12-27T07:28:20.557Z,95702.03
2022-12-27T07:31:08.361Z,95704.22
2022-12-27T07:33:51.976Z,95714.03
2022-12-27T07:36:38.280Z,95712.88
2022-12-27T07:39:21.354Z,95718.06
2022-12-27T07:42:08.661Z,95714.38
2022-12-27T07:44:51.908Z,95711.38
2022-12-27T07:47:35.085Z,95705.56
2022-12-27T07:50:18.270Z,95694.53
2022-12-27T07:53:04.757Z,95674.47
2022-12-27T07:55:49.304Z,95692.53
2022-12-27T07:58:38.849Z,95693.66
2022-12-27T08:01:22.951Z,95697.34
2022-12-27T08:04:06.260Z,95712.19
2022-12-27T08:06:49.829Z,95714.16
2022-12-27T08:09:37.243Z,95713.50
2022-12-27T08:12:20.425Z,95710.34
2022-12-27T08:15:05.244Z,95717.16
2022-12-27T08:17:53.546Z,95714.78
2022-12-27T08:20:38.243Z,95714.25
2022-12-27T08:23:21.726Z,95714.56
2022-12-27T08:26:05.666Z,95711.00
2022-12-27T08:28:52.635Z,95713.50
2022-12-27T08:31:52.628Z,95715.16
2022-12-27T08:34:36.450Z,95720.50
2022-12-27T08:37:19.902Z,95715.69
2022-12-27T08:40:07.941Z,95716.94
2022-12-27T08:42:51.461Z,95705.34
2022-12-27T08:45:34.888Z,95693.19
2022-12-27T08:48:20.725Z,95693.09
2022-12-27T08:51:11.917Z,95692.22
2022-12-27T08:53:56.187Z,95688.13
2022-12-27T08:56:39.280Z,95696.00
2022-12-27T08:59:22.604Z,95695.94
2022-12-27T09:02:05.883Z,95691.72
2022-12-27T09:04:50.612Z,95690.09
2022-12-27T09:07:33.978Z,95680.19
2022-12-27T09:10:17.768Z,95677.56
2022-12-27T09:13:00.944Z,95690.03
2022-12-27T09:15:45.214Z,95681.66
2022-12-27T09:18:28.388Z,95672.13
2022-12-27T09:21:14.757Z,95673.53
2022-12-27T09:23:57.837Z,95674.66
2022-12-27T09:26:41.318Z,95660.09
2022-12-27T09:29:24.499Z,95661.56
2022-12-27T09:32:07.882Z,95662.69
2022-12-27T09:34:51.273Z,95648.84
2022-12-27T09:37:35.799Z,95658.31
2022-12-27T09:40:21.471Z,95653.84
2022-12-27T09:43:19.596Z,95660.50
2022-12-27T09:46:11.343Z,95647.84
2022-12-27T09:48:57.170Z,95657.38
2022-12-27T09:51:49.533Z,95641.25
2022-12-27T09:54:40.326Z,95636.03
2022-12-27T09:57:28.329Z,95641.81
2022-12-27T10:00:19.946Z,95646.53
2022-12-27T10:03:22.206Z,95628.75
2022-12-27T10:06:26.744Z,95625.94
2022-12-27T10:09:26.502Z,95621.38
2022-12-27T10:12:29.930Z,95615.84
2022-12-27T10:15:24.696Z,95592.75
2022-12-27T10:18:19.410Z,95587.72
2022-12-27T10:21:12.439Z,95572.50
2022-12-27T10:23:59.932Z,95570.81
2022-12-27T10:26:43.160Z,95575.59
2022-12-27T10:29:28.423Z,95580.00
2022-12-27T10:32:14.814Z,95583.06
2022-12-27T10:35:01.482Z,95589.06
2022-12-27T10:37:48.249Z,95584.38
2022-12-27T10:40:41.061Z,95583.03
2022-12-27T10:43:30.059Z,95584.91
2022-12-27T10:46:18.063Z,95589.00
2022-12-27T10:52:11.453Z,95586.81
2022-12-27T10:54:56.266Z,95580.50
2022-12-27T10:57:39.298Z,95583.31
2022-12-27T11:00:24.770Z,95584.25
2022-12-27T11:03:20.401Z,95567.28
2022-12-27T11:06:05.927Z,95576.44
2022-12-27T11:08:49.397Z,95575.13
2022-12-27T11:11:32.600Z,95580.47
2022-12-27T11:14:19.132Z,95571.25
2022-12-27T11:17:10.714Z,95570.16
2022-12-27T11:19:57.462Z,95573.50
2022-12-27T11:22:45.424Z,95576.94
2022-12-27T11:25:29.718Z,95568.53
2022-12-27T11:28:24.466Z,95567.84
2022-12-27T11:31:11.336Z,95555.63
2022-12-27T11:33:56.308Z,95552.47
2022-12-27T11:36:43.109Z,95560.31
2022-12-27T11:39:40.591Z,95563.31
2022-12-27T11:42:33.716Z,95562.25
2022-12-27T11:45:24.183Z,95562.13
2022-12-27T11:48:20.136Z,95556.69
2022-12-27T11:51:22.662Z,95567.09
2022-12-27T11:54:34.423Z,95561.25
2022-12-27T11:57:28.591Z,95562.16
2022-12-27T12:00:19.268Z,95560.91
2022-12-27T12:03:36.299Z,95574.31
2022-12-27T12:06:28.832Z,95561.06
2022-12-27T12:09:36.490Z,95571.94
2022-12-27T12:12:56.242Z,95566.22
2022-12-27T12:16:04.904Z,95568.66
2022-12-27T12:19:10.612Z,95566.31
2022-12-27T12:22:05.988Z,95551.06
2022-12-27T12:25:09.208Z,95551.06
2022-12-27T12:28:55.559Z,95551.66
2022-12-27T12:31:42.498Z,95553.03
2022-12-27T12:34:39.149Z,95570.09
2022-12-27T12:37:40.321Z,95572.28
2022-12-27T12:40:44.516Z,95577.81
2022-12-27T12:43:51.703Z,95580.78
2022-12-27T12:46:39.733Z,95578.78
2022-12-27T12:49:54.335Z,95581.00
2022-12-27T12:52:51.986Z,95578.59
2022-12-27T12:55:48.589Z,95577.34
2022-12-27T12:58:46.296Z,95590.91
2022-12-27T13:01:51.109Z,95588.25
2022-12-27T13:04:58.617Z,95580.97
2022-12-27T13:07:53.157Z,95587.38
2022-12-27T13:10:50.985Z,95598.47
2022-12-27T13:13:48.096Z,95592.66
2022-12-27T13:16:45.391Z,95602.53
2022-12-27T13:19:56.782Z,95606.06
2022-12-27T13:22:55.067Z,95610.97
2022-12-27T13:25:46.237Z,95617.56
2022-12-27T13:28:40.406Z,95622.09
2022-12-27T13:31:36.180Z,95616.94
2022-12-27T13:34:36.104Z,95624.72
2022-12-27T13:37:33.747Z,95629.53
2022-12-27T13:40:44.803Z,95634.63
2022-12-27T13:43:57.779Z,95639.53
2022-12-27T13:47:08.964Z,95645.38
2022-12-27T13:50:18.639Z,95645.88
2022-12-27T13:53:22.895Z,95642.94
2022-12-27T13:56:52.737Z,95648.38
2022-12-27T14:00:06.984Z,95652.75
2022-12-27T14:03:22.353Z,95649.66
2022-12-27T14:06:33.391Z,95649.41
2022-12-27T14:09:35.852Z,95649.31
2022-12-27T14:12:50.489Z,95654.66
2022-12-27T14:16:07.264Z,95667.97
2022-12-27T14:19:22.896Z,95660.88
2022-12-27T14:22:38.257Z,95658.78
2022-12-27T14:26:03.632Z,95663.06
2022-12-27T14:29:18.640Z,95664.78
2022-12-27T14:32:36.257Z,95669.72
2022-12-27T14:35:42.767Z,95672.69
2022-12-27T14:38:48.285Z,95675.97
2022-12-27T14:42:15.956Z,95676.25
2022-12-27T14:45:34.405Z,95679.66
2022-12-27T14:49:02.389Z,95677.31
2022-12-27T14:52:19.921Z,95684.38
2022-12-27T14:55:36.317Z,95684.03
2022-12-27T14:58:41.214Z,95689.94
2022-12-27T15:01:40.845Z,95683.38
2022-12-27T15:04:46.345Z,95681.28
2022-12-27T15:07:53.730Z,95679.88
2022-12-27T15:11:00.888Z,95686.94
2022-12-27T15:14:01.279Z,95694.66
2022-12-27T15:16:56.165Z,95693.47
2022-12-27T15:20:02.643Z,95679.91
2022-12-27T15:22:58.366Z,95691.13
2022-12-27T15:25:54.343Z,95696.50
2022-12-27T15:28:52.830Z,95697.69
2022-12-27T15:31:45.171Z,95693.75
2022-12-27T15:34:45.082Z,95702.16
2022-12-27T15:38:04.357Z,95705.38
2022-12-27T15:41:07.362Z,95696.97
2022-12-27T15:44:13.700Z,95702.78
2022-12-27T15:47:21.751Z,95706.38
2022-12-27T15:50:31.882Z,95710.38
2022-12-27T15:53:52.551Z,95711.78
2022-12-27T15:56:45.224Z,95719.38
2022-12-27T15:59:39.337Z,95719.38
2022-12-27T16:02:32.989Z,95715.38
2022-12-27T16:05:54.129Z,95721.78
2022-12-27T16:08:41.116Z,95714.59
2022-12-27T16:12:01.426Z,95722.97
2022-12-27T16:14:45.154Z,95714.19
2022-12-27T16:17:38.734Z,95714.19
2022-12-27T16:20:23.823Z,95708.78
2022-12-27T16:23:08.622Z,95708.59
2022-12-27T16:26:03.799Z,95715.78
2022-12-27T16:28:55.212Z,95707.19
2022-12-27T16:31:45.571Z,95712.19
2022-12-27T16:34:31.519Z,95710.41
2022-12-27T16:37:30.870Z,95718.16
2022-12-27T16:40:37.965Z,95720.19
2022-12-27T16:43:50.461Z,95708.56
2022-12-27T16:46:53.701Z,95716.34
2022-12-27T16:50:01.817Z,95719.69
2022-12-27T16:53:02.359Z,95714.91
2022-12-27T16:56:08.167Z,95712.50
2022-12-27T16:58:53.713Z,95721.28
2022-12-27T17:01:58.919Z,95726.06
2022-12-27T17:05:02.089Z,95729.63
2022-12-27T17:07:51.483Z,95727.00
2022-12-27T17:11:09.831Z,95731.56
2022-12-27T17:13:58.130Z,95734.97
2022-12-27T17:16:44.186Z,95740.97
2022-12-27T17:19:34.450Z,95738.75
2022-12-27T17:22:19.201Z,95739.16
2022-12-27T17:25:03.444Z,95741.09
2022-12-27T17:27:57.973Z,95740.09
2022-12-27T17:30:54.482Z,95736.88
2022-12-27T17:33:43.513Z,95744.75
2022-12-27T17:36:38.536Z,95736.13
2022-12-27T17:39:38.122Z,95738.00
2022-12-27T17:42:48.895Z,95750.97
2022-12-27T17:45:41.488Z,95754.13
2022-12-27T17:48:29.098Z,95749.91
2022-12-27T17:51:16.100Z,95751.81
2022-12-27T17:54:16.845Z,95752.03
2022-12-27T17:57:19.616Z,95748.91
2022-12-27T18:00:03.170Z,95746.50
2022-12-27T18:02:46.455Z,95748.09
2022-12-27T18:05:34.012Z,95751.84
2022-12-27T18:08:28.051Z,95746.13
2022-12-27T18:11:15.760Z,95756.47
2022-12-27T18:14:01.032Z,95750.84
2022-12-27T18:16:44.297Z,95756.72
2022-12-27T18:19:31.073Z,95760.28
2022-12-27T18:22:20.531Z,95763.31
2022-12-27T18:25:04.083Z,95763.19
2022-12-27T18:28:00.506Z,95761.97
2022-12-27T18:30:46.748Z,95775.16
2022-12-27T18:33:34.408Z,95783.53
2022-12-27T18:36:25.732Z,95781.72
2022-12-27T18:39:29.960Z,95797.44
2022-12-27T18:42:18.728Z,95796.78
2022-12-27T18:45:05.198Z,95793.25
2022-12-27T18:47:50.872Z,95792.06
2022-12-27T18:50:35.762Z,95800.50
2022-12-27T18:53:25.268Z,95801.78
2022-12-27T18:56:29.302Z,95795.00
2022-12-27T18:59:25.570Z,95805.81
2022-12-27T19:02:34.438Z,95801.38
2022-12-27T19:05:31.242Z,95798.97
2022-12-27T19:08:20.196Z,95806.56
2022-12-27T19:11:03.740Z,95796.16
2022-12-27T19:13:53.127Z,95788.56
2022-12-27T19:16:36.835Z,95789.72
2022-12-27T19:19:25.415Z,95803.59
2022-12-27T19:22:46.922Z,95807.72
2022-12-27T19:25:31.595Z,95810.25
2022-12-27T19:28:26.793Z,95821.31
2022-12-27T19:31:18.538Z,95831.75
2022-12-27T19:34:03.864Z,95837.34
2022-12-27T19:36:48.840Z,95846.44
2022-12-27T19:39:35.994Z,95849.38
2022-12-27T19:42:26.070Z,95858.84
2022-12-27T19:45:14.863Z,95864.91
2022-12-27T19:47:59.419Z,95861.34
2022-12-27T19:50:46.901Z,95856.97
2022-12-27T19:53:34.702Z,95850.88
2022-12-27T19:56:18.131Z,95853.00
2022-12-27T19:59:01.303Z,95845.09
2022-12-27T20:01:46.774Z,95844.38
2022-12-27T20:04:31.326Z,95847.69
2022-12-27T20:07:21.775Z,95846.53
2022-12-27T20:10:06.199Z,95852.16
2022-12-27T20:12:51.439Z,95857.41
2022-12-27T20:15:34.450Z,95854.22
2022-12-27T20:18:18.083Z,95853.03
2022-12-27T20:21:02.667Z,95857.41
2022-12-27T20:23:46.135Z,95864.34
2022-12-27T20:26:29.485Z,95856.78
2022-12-27T20:29:15.299Z,95862.06
2022-12-27T20:31:59.030Z,95868.03
2022-12-27T20:34:43.208Z,95865.78
2022-12-27T20:37:28.061Z,95872.66
2022-12-27T20:40:12.310Z,95865.16
2022-12-27T20:42:57.103Z,95872.13
2022-12-27T20:45:40.361Z,95871.75
2022-12-27T20:48:23.814Z,95881.47
2022-12-27T20:51:09.197Z,95876.38
2022-12-27T20:53:58.263Z,95872.22
2022-12-27T20:56:41.568Z,95874.34
2022-12-27T20:59:24.908Z,95870.88
2022-12-27T21:02:08.231Z,95873.16
2022-12-27T21:04:51.913Z,95891.06
2022-12-27T21:07:35.655Z,95884.28
2022-12-27T21:10:20.352Z,95877.09
2022-12-27T21:13:03.510Z,95886.28
2022-12-27T21:15:48.717Z,95883.06
2022-12-27T21:18:32.646Z,95897.75
2022-12-27T21:21:19.571Z,95897.28
2022-12-27T21:24:03.226Z,95901.84
2022-12-27T21:26:51.968Z,95893.72
2022-12-27T21:29:39.284Z,95893.72
2022-12-27T21:32:22.358Z,95892.94
2022-12-27T21:35:05.863Z,95904.97
2022-12-27T21:37:48.990Z,95917.44
2022-12-27T21:40:31.993Z,95915.38
2022-12-27T21:43:16.416Z,95920.28
2022-12-27T21:45:59.895Z,95920.28
2022-12-27T21:48:43.357Z,95925.78
2022-12-27T21:51:27.387Z,95931.25
2022-12-27T21:54:11.643Z,95931.16
2022-12-27T21:56:54.713Z,95939.91
2022-12-27T21:59:39.380Z,95933.91
2022-12-27T22:02:22.872Z,95952.56
2022-12-27T22:05:07.932Z,95941.50
2022-12-27T22:07:51.003Z,95939.25
2022-12-27T22:10:34.209Z,95945.06
2022-12-27T22:13:17.241Z,95936.69
2022-12-27T22:16:03.532Z,95940.91
2022-12-27T22:18:47.640Z,95932.09
2022-12-27T22:21:32.897Z,95932.66
2022-12-27T22:24:19.859Z,95926.41
2022-12-27T22:27:03.287Z,95922.16
2022-12-27T22:29:46.385Z,95936.22
2022-12-27T22:32:30.785Z,95936.84
2022-12-27T22:35:13.841Z,95941.47
2022-12-27T22:37:56.843Z,95934.34
2022-12-27T22:40:46.474Z,95936.41
2022-12-27T22:43:30.229Z,95943.97
2022-12-27T22:46:14.542Z,95932.84
2022-12-27T22:49:01.090Z,95933.47
2022-12-27T22:51:44.123Z,95920.88
2022-12-27T22:55:04.691Z,95934.09
2022-12-27T22:57:30.282Z,95922.94
2022-12-27T23:00:16.012Z,95920.28
2022-12-27T23:02:59.044Z,95923.28
2022-12-27T23:05:43.591Z,95936.47
2022-12-27T23:08:26.913Z,95933.81
2022-12-27T23:11:12.914Z,95936.06
2022-12-27T23:13:58.553Z,95924.56
2022-12-27T23:16:43.969Z,95929.81
2022-12-27T23:19:27.034Z,95924.28
2022-12-27T23:22:11.516Z,95923.47
2022-12-27T23:24:54.654Z,95928.44
2022-12-27T23:27:37.773Z,95920.16
2022-12-27T23:30:22.972Z,95929.00
2022-12-27T23:33:06.022Z,95920.88
2022-12-27T23:35:49.192Z,95925.34
2022-12-27T23:38:33.627Z,95931.97
2022-12-27T23:41:17.687Z,95929.00
2022-12-27T23:44:01.665Z,95927.38
2022-12-27T23:46:45.189Z,95923.75
2022-12-27T23:49:28.234Z,95916.84
2022-12-27T23:52:11.459Z,95914.81
2022-12-27T23:54:55.926Z,95914.53
2022-12-27T23:57:39.250Z,95916.06
